Cruise inventory

FRV Scotia 1389S_2

Cruise summary report

Cruise Info. 
Ship name (ship code)FRV Scotia (749S)
Cruise identifier1389S_2
Cruise period1989-12-12 — 1989-12-20
StatusCompleted
Port of departureAberdeen, United Kingdom
ObjectivesThe objectives of this cruise and their outcomes were:
(1) To work hydrographic (CTD and nutrients) stations east of the Shetland Isles as a preliminary investigation of the inflow of Atlantic water to the northern North Sea. Accomplished 5 sections plus stations to the west of the Shetlands and in the Orkney-Shetland Gap.
2. To work hydrographic stations east of the Orkney Islands (JONSIS line) and east of the Scottish mainland. Accomplished three sections.
3. To collect caesium samples as required. Accomplished.
Chief scientistBill Turrell (Scottish Office Agriculture and Fisheries Department Aberdeen Marine Laboratory)
Cruise reportFRV Scotia 1389S_2 cruise report sc13_89part2.pdf — access key 'C' (0.09 MB) 
Ocean/sea areas 
GeneralNorth Sea
North East Atlantic Ocean (limit 40W)
SpecificShetland Isles/ Orkney Islands
Track chartsFRV Scotia 1389S_2 cruise track — trk3538a.html FRV Scotia 1389S_2 cruise track — trk3538b.html
Measurements 
Physical oceanography 
Surface measurements underway (T,S)Description: Duration of cruise
Water bottle stationsQuantity: number of profiles = 8
Description: Knudsen bottle samples.
CTD stationsQuantity: number of profiles = 83
Chemical oceanography 
PhosphateQuantity: number of stations = 83
NitrateQuantity: number of stations = 83
SilicateQuantity: number of stations = 83
Radioactivity
Data held at BODC 
Series/Profiles 
83  CTD/STD cast
Density of the water column
Electrical conductivity of the water column
Vertical spatial coordinates
Salinity of the water column
Temperature of the water column
Density of the water column
Electrical conductivity of the water column
Vertical spatial coordinates
Salinity of the water column
Temperature of the water column

BODC idDate/TimeLocationDoc.
4084851989-12-12 16:51 57° 29' 57" N  0° 39' 55" W  View metadata report for BODC series reference number 408485
4084971989-12-12 18:05 57° 40' 6" N  0° 40' 11" W  View metadata report for BODC series reference number 408497
4085041989-12-12 19:18 57° 49' 59" N  0° 40' 0" W  View metadata report for BODC series reference number 408504
4085161989-12-12 20:35 57° 59' 53" N  0° 39' 51" W  View metadata report for BODC series reference number 408516
4085281989-12-12 21:56 58° 9' 5" N  0° 39' 55" W  View metadata report for BODC series reference number 408528
4085411989-12-13 08:13 59° 24' 57" N  2° 9' 49" W  View metadata report for BODC series reference number 408541
4085531989-12-13 09:10 59° 29' 57" N  1° 59' 42" W  View metadata report for BODC series reference number 408553
4085651989-12-13 10:08 59° 34' 55" N  1° 49' 58" W  View metadata report for BODC series reference number 408565
4085771989-12-13 11:24 59° 39' 55" N  1° 39' 53" W  View metadata report for BODC series reference number 408577
4085891989-12-13 12:29 59° 45' 1" N  1° 29' 56" W  View metadata report for BODC series reference number 408589
4085901989-12-13 13:35 59° 49' 18" N  1° 22' 14" W  View metadata report for BODC series reference number 408590
4086081989-12-13 14:52 59° 54' 59" N  1° 13' 52" W  View metadata report for BODC series reference number 408608
4086211989-12-13 15:45 59° 55' 1" N  0° 59' 55" W  View metadata report for BODC series reference number 408621
4086331989-12-13 16:34 59° 54' 57" N  0° 50' 10" W  View metadata report for BODC series reference number 408633
4086451989-12-13 17:24 59° 54' 58" N  0° 40' 16" W  View metadata report for BODC series reference number 408645
4086571989-12-13 18:30 59° 55' 0" N  0° 19' 51" W  View metadata report for BODC series reference number 408657
4086691989-12-13 19:39 59° 55' 1" N  0° 0' 0" E  View metadata report for BODC series reference number 408669
4086701989-12-13 21:07 59° 54' 59" N  0° 20' 0" E  View metadata report for BODC series reference number 408670
4086821989-12-13 22:11 59° 55' 0" N  0° 40' 5" E  View metadata report for BODC series reference number 408682
4086941989-12-13 23:25 59° 54' 56" N  1° 0' 2" E  View metadata report for BODC series reference number 408694
4087011989-12-14 02:45 60° 25' 10" N  0° 59' 46" E  View metadata report for BODC series reference number 408701
4087131989-12-14 03:58 60° 24' 56" N  0° 39' 52" E  View metadata report for BODC series reference number 408713
4087251989-12-14 05:06 60° 25' 8" N  0° 19' 52" E  View metadata report for BODC series reference number 408725
4087371989-12-14 06:10 60° 13' 3" N  0° 0' 13" W  View metadata report for BODC series reference number 408737
4087491989-12-14 07:20 60° 25' 2" N  0° 19' 54" W  View metadata report for BODC series reference number 408749
4087501989-12-14 08:26 60° 25' 5" N  0° 40' 6" W  View metadata report for BODC series reference number 408750
4087621989-12-14 11:04 60° 49' 55" N  0° 43' 52" W  View metadata report for BODC series reference number 408762
4087741989-12-14 11:27 60° 49' 55" N  0° 39' 55" W  View metadata report for BODC series reference number 408774
4087861989-12-14 12:18 60° 49' 57" N  0° 29' 52" W  View metadata report for BODC series reference number 408786
4087981989-12-14 13:00 60° 49' 55" N  0° 19' 54" W  View metadata report for BODC series reference number 408798
4088051989-12-14 14:09 60° 50' 0" N  0° 0' 4" E  View metadata report for BODC series reference number 408805
4088171989-12-14 15:20 60° 50' 1" N  0° 20' 3" E  View metadata report for BODC series reference number 408817
4088291989-12-15 00:16 60° 49' 58" N  1° 0' 17" E  View metadata report for BODC series reference number 408829
4088301989-12-15 01:30 61° 0' 1" N  1° 0' 0" E  View metadata report for BODC series reference number 408830
4088421989-12-15 02:37 61° 8' 45" N  0° 57' 35" E  View metadata report for BODC series reference number 408842
4088541989-12-15 04:21 61° 19' 57" N  0° 59' 57" E  View metadata report for BODC series reference number 408854
4088661989-12-15 05:36 61° 30' 0" N  1° 0' 0" E  View metadata report for BODC series reference number 408866
4088781989-12-15 07:07 61° 40' 1" N  1° 0' 0" E  View metadata report for BODC series reference number 408878
4088911989-12-15 08:18 61° 49' 59" N  0° 59' 59" E  View metadata report for BODC series reference number 408891
4089091989-12-15 13:18 61° 40' 1" N  0° 50' 1" W  View metadata report for BODC series reference number 408909
4089101989-12-15 14:31 61° 29' 53" N  0° 49' 49" W  View metadata report for BODC series reference number 408910
4089221989-12-15 15:39 61° 19' 58" N  0° 49' 58" W  View metadata report for BODC series reference number 408922
4089341989-12-15 16:47 61° 9' 58" N  0° 49' 56" W  View metadata report for BODC series reference number 408934
4089461989-12-15 17:57 61° 0' 7" N  0° 50' 15" W  View metadata report for BODC series reference number 408946
4089581989-12-15 18:56 60° 51' 57" N  0° 50' 8" W  View metadata report for BODC series reference number 408958
4089711989-12-15 20:18 60° 45' 0" N  1° 9' 54" W  View metadata report for BODC series reference number 408971
4089831989-12-15 21:12 60° 50' 12" N  1° 20' 21" W  View metadata report for BODC series reference number 408983
4089951989-12-15 23:02 60° 54' 56" N  1° 30' 2" W  View metadata report for BODC series reference number 408995
4090091989-12-16 00:02 61° 0' 1" N  1° 40' 14" W  View metadata report for BODC series reference number 409009
4090101989-12-16 00:57 61° 5' 5" N  1° 49' 50" W  View metadata report for BODC series reference number 409010
4090221989-12-16 04:50 60° 39' 56" N  3° 0' 4" W  View metadata report for BODC series reference number 409022
4090341989-12-16 06:30 60° 30' 1" N  2° 40' 1" W  View metadata report for BODC series reference number 409034
4090461989-12-16 07:59 60° 20' 1" N  2° 19' 52" W  View metadata report for BODC series reference number 409046
4090581989-12-16 09:31 60° 10' 4" N  1° 59' 51" W  View metadata report for BODC series reference number 409058
4090711989-12-16 10:59 60° 0' 0" N  1° 40' 1" W  View metadata report for BODC series reference number 409071
4090831989-12-16 12:10 59° 49' 47" N  1° 39' 42" W  View metadata report for BODC series reference number 409083
4090951989-12-16 13:39 59° 49' 55" N  2° 0' 22" W  View metadata report for BODC series reference number 409095
4091021989-12-16 14:43 59° 50' 3" N  2° 20' 5" W  View metadata report for BODC series reference number 409102
4091141989-12-16 15:44 59° 50' 3" N  2° 40' 22" W  View metadata report for BODC series reference number 409114
4091261989-12-16 16:44 59° 50' 3" N  3° 0' 22" W  View metadata report for BODC series reference number 409126
4091381989-12-17 19:40 59° 10' 1" N  3° 20' 10" W  View metadata report for BODC series reference number 409138
4091511989-12-17 20:25 59° 12' 30" N  3° 30' 1" W  View metadata report for BODC series reference number 409151
4091631989-12-17 21:17 59° 14' 58" N  3° 40' 2" W  View metadata report for BODC series reference number 409163
4091751989-12-18 20:06 59° 16' 58" N  2° 13' 52" W  View metadata report for BODC series reference number 409175
4091871989-12-18 21:06 59° 17' 1" N  2° 5' 5" W  View metadata report for BODC series reference number 409187
4091991989-12-18 22:03 59° 17' 1" N  1° 55' 48" W  View metadata report for BODC series reference number 409199
4092061989-12-18 23:06 59° 16' 51" N  1° 47' 57" W  View metadata report for BODC series reference number 409206
4092181989-12-18 23:57 59° 16' 50" N  1° 39' 59" W  View metadata report for BODC series reference number 409218
4092311989-12-19 00:47 59° 16' 56" N  1° 29' 50" W  View metadata report for BODC series reference number 409231
4092431989-12-19 01:40 59° 16' 55" N  1° 19' 52" W  View metadata report for BODC series reference number 409243
4092551989-12-19 02:35 59° 16' 54" N  1° 9' 51" W  View metadata report for BODC series reference number 409255
4092671989-12-19 03:30 59° 16' 55" N  0° 59' 53" W  View metadata report for BODC series reference number 409267
4092791989-12-19 05:00 59° 16' 49" N  0° 39' 54" W  View metadata report for BODC series reference number 409279
4092801989-12-19 06:34 59° 17' 1" N  0° 19' 58" W  View metadata report for BODC series reference number 409280
4092921989-12-19 08:15 59° 16' 55" N  0° 0' 1" W  View metadata report for BODC series reference number 409292
4093111989-12-19 14:24 58° 27' 53" N  0° 0' 6" W  View metadata report for BODC series reference number 409311
4093231989-12-19 15:50 58° 22' 58" N  0° 14' 57" W  View metadata report for BODC series reference number 409323
4093351989-12-19 16:58 58° 17' 53" N  0° 29' 58" W  View metadata report for BODC series reference number 409335
4093471989-12-19 17:59 58° 12' 58" N  0° 45' 6" W  View metadata report for BODC series reference number 409347
4093591989-12-19 18:59 58° 7' 59" N  1° 0' 4" W  View metadata report for BODC series reference number 409359
4093601989-12-19 20:02 58° 2' 55" N  1° 14' 51" W  View metadata report for BODC series reference number 409360
4093721989-12-19 21:08 57° 58' 2" N  1° 29' 58" W  View metadata report for BODC series reference number 409372
4093841989-12-19 22:11 57° 53' 4" N  1° 45' 5" W  View metadata report for BODC series reference number 409384